Time;durP1;ratioP1;P1;durP2;ratioP2;P2;SDS_P1;SDS_P2;PMS_P1;PMS_P2;Temp;Humidity;BMP_temperature;BMP_pressure;BME280_temperature;BME280_humidity;BME280_pressure;Samples;Min_cycle;Max_cycle;Signal;HPM_P1;HPM_P2
2023/01/30 00:02:02;;;;;;;13.52;7.50;;;5.10;96.70;;;;;;4968202;28;20046;-70
2023/01/30 00:04:30;;;;;;;14.40;8.60;;;5.20;96.70;;;;;;4968467;28;20057;-71
2023/01/30 00:06:58;;;;;;;11.77;8.07;;;5.20;96.70;;;;;;4985632;28;20610;-71
2023/01/30 00:09:26;;;;;;;12.43;7.43;;;5.10;96.70;;;;;;4985803;28;20043;-71
2023/01/30 00:11:54;;;;;;;11.90;7.32;;;5.20;96.70;;;;;;4984255;28;20053;-71
2023/01/30 00:14:22;;;;;;;12.48;7.47;;;5.30;96.70;;;;;;4983972;28;20484;-71
2023/01/30 00:16:52;;;;;;;12.02;6.32;;;5.20;96.70;;;;;;4981189;28;20042;-70
2023/01/30 00:19:20;;;;;;;8.35;5.22;;;5.10;96.70;;;;;;4985370;28;20046;-74
2023/01/30 00:21:48;;;;;;;10.40;5.57;;;5.10;96.70;;;;;;4982463;28;20440;-74
2023/01/30 00:24:19;;;;;;;8.00;5.43;;;5.00;96.70;;;;;;4985290;28;20042;-74
2023/01/30 00:26:47;;;;;;;8.77;5.45;;;5.00;96.70;;;;;;4981468;28;20097;-74
2023/01/30 00:29:15;;;;;;;8.30;5.10;;;5.00;96.70;;;;;;4984630;28;20046;-74
2023/01/30 00:31:43;;;;;;;11.27;5.65;;;5.00;96.70;;;;;;4980584;28;20046;-74
2023/01/30 00:34:13;;;;;;;9.82;6.22;;;5.00;96.70;;;;;;4983330;28;20773;-74
2023/01/30 00:36:41;;;;;;;9.30;6.07;;;5.00;96.70;;;;;;4979339;28;20436;-75
2023/01/30 00:39:09;;;;;;;8.32;5.57;;;4.90;96.70;;;;;;4983912;28;20031;-74
2023/01/30 00:47:10;;;;;;;7.25;4.65;;;4.90;96.70;;;;;;4974906;28;20081;-75
2023/01/30 00:49:41;;;;;;;6.90;4.80;;;4.90;96.70;;;;;;4964085;28;20042;-75
2023/01/30 00:52:09;;;;;;;8.13;5.10;;;4.80;96.70;;;;;;4975554;28;20588;-74
2023/01/30 00:54:37;;;;;;;6.45;4.10;;;4.70;96.70;;;;;;4983994;28;20046;-75
2023/01/30 00:57:05;;;;;;;6.75;4.60;;;4.80;96.70;;;;;;4966773;28;20072;-75
2023/01/30 00:59:33;;;;;;;7.50;4.30;;;4.90;96.70;;;;;;4983065;28;20049;-75
2023/01/30 01:02:01;;;;;;;7.97;4.72;;;4.90;96.70;;;;;;4979820;28;20050;-75
2023/01/30 01:04:29;;;;;;;7.05;4.35;;;4.80;96.70;;;;;;4980858;28;20139;-74
2023/01/30 01:06:59;;;;;;;8.13;5.15;;;4.80;96.70;;;;;;4982461;28;20142;-75
2023/01/30 01:09:26;;;;;;;6.72;4.53;;;4.70;96.70;;;;;;4974603;28;20650;-74
2023/01/30 01:11:54;;;;;;;7.90;5.20;;;4.70;96.70;;;;;;4982642;28;20052;-74
2023/01/30 01:14:22;;;;;;;7.85;5.03;;;4.60;96.70;;;;;;4982791;28;20057;-74
2023/01/30 01:16:50;;;;;;;8.55;5.38;;;4.50;96.70;;;;;;4977646;28;20326;-77
2023/01/30 01:19:18;;;;;;;9.55;5.20;;;4.50;96.70;;;;;;4961227;28;20047;-74
2023/01/30 01:21:46;;;;;;;8.77;5.50;;;4.50;96.70;;;;;;4995493;28;20141;-74
2023/01/30 01:24:16;;;;;;;10.27;5.38;;;4.50;96.70;;;;;;4982948;28;20640;-72
2023/01/30 01:26:44;;;;;;;9.73;6.03;;;4.40;96.70;;;;;;4984285;28;20520;-74
2023/01/30 01:29:13;;;;;;;8.68;5.65;;;4.30;96.70;;;;;;4978489;28;20039;-74
2023/01/30 01:31:42;;;;;;;11.35;5.63;;;4.30;96.70;;;;;;4982178;28;20055;-74
2023/01/30 01:34:10;;;;;;;9.73;5.88;;;4.20;96.70;;;;;;4983346;28;20116;-74
2023/01/30 01:36:38;;;;;;;9.60;5.85;;;4.30;96.70;;;;;;4983384;28;20548;-74
2023/01/30 01:39:22;;;;;;;9.38;5.93;;;4.20;96.70;;;;;;4983791;28;20049;-74
2023/01/30 01:41:50;;;;;;;10.70;6.13;;;4.40;96.70;;;;;;4982495;28;20255;-74
2023/01/30 01:44:18;;;;;;;11.43;5.65;;;4.30;96.70;;;;;;4982430;28;20049;-73
2023/01/30 01:46:50;;;;;;;10.88;6.15;;;4.20;96.70;;;;;;4983323;28;20071;-74
2023/01/30 01:49:22;;;;;;;10.35;6.13;;;4.00;96.70;;;;;;4981673;28;20054;-74
2023/01/30 01:51:56;;;;;;;11.57;7.00;;;4.10;96.70;;;;;;4983662;28;20042;-72
2023/01/30 01:54:33;;;;;;;10.60;6.70;;;4.10;96.70;;;;;;4983888;28;20576;-70
2023/01/30 01:57:03;;;;;;;11.13;7.30;;;4.20;96.70;;;;;;4965900;28;20150;-70
2023/01/30 01:59:35;;;;;;;10.30;6.70;;;4.20;96.70;;;;;;4965977;28;20416;-70
2023/01/30 02:02:09;;;;;;;10.73;6.60;;;4.20;96.70;;;;;;4983193;28;20145;-70
2023/01/30 02:07:32;;;;;;;11.60;7.78;;;4.10;96.70;;;;;;4980208;28;20046;-70
2023/01/30 02:10:02;;;;;;;11.93;7.20;;;4.20;96.70;;;;;;4982014;28;20069;-69
2023/01/30 02:12:30;;;;;;;9.38;6.63;;;3.90;96.70;;;;;;4983639;28;20409;-70
2023/01/30 02:14:59;;;;;;;11.15;7.20;;;3.90;96.70;;;;;;4981488;28;20043;-72
2023/01/30 02:17:27;;;;;;;13.27;7.35;;;4.10;96.70;;;;;;4981499;28;20471;-69
2023/01/30 02:20:03;;;;;;;9.95;7.28;;;4.10;96.70;;;;;;4982104;28;20038;-69
2023/01/30 02:23:03;;;;;;;11.13;6.95;;;4.20;96.70;;;;;;4983359;28;20060;-70
2023/01/30 02:26:09;;;;;;;10.80;6.93;;;4.20;96.70;;;;;;4943340;28;20065;-70
2023/01/30 02:29:05;;;;;;;12.20;6.97;;;4.30;96.70;;;;;;4965482;28;20552;-70
2023/01/30 02:31:42;;;;;;;11.77;6.68;;;4.10;96.70;;;;;;4977180;28;20061;-70
2023/01/30 02:34:18;;;;;;;;;;;4.10;96.70;;;;;;4982165;28;20050;-71
2023/01/30 02:36:53;;;;;;;10.27;6.53;;;4.10;96.70;;;;;;4973707;28;20358;-70
2023/01/30 02:39:31;;;;;;;11.52;6.38;;;4.00;96.70;;;;;;4982078;28;20051;-71
2023/01/30 02:42:04;;;;;;;10.57;7.20;;;3.90;96.70;;;;;;4981866;28;20046;-70
2023/01/30 02:44:43;;;;;;;10.40;6.57;;;3.80;96.70;;;;;;4981356;28;20049;-70
2023/01/30 02:47:17;;;;;;;9.43;6.65;;;3.90;96.70;;;;;;4982042;28;20137;-70
2023/01/30 02:49:49;;;;;;;10.73;6.60;;;3.70;96.70;;;;;;4981784;28;20176;-70
2023/01/30 02:52:17;;;;;;;9.50;6.22;;;3.70;96.70;;;;;;4981438;28;20058;-71
2023/01/30 02:54:45;;;;;;;10.05;6.82;;;3.90;96.70;;;;;;4980891;28;20043;-71
2023/01/30 02:57:19;;;;;;;10.80;6.60;;;4.00;96.70;;;;;;4965742;28;20699;-71
2023/01/30 02:59:55;;;;;;;8.90;6.32;;;4.00;96.70;;;;;;4981458;28;20061;-70
2023/01/30 03:03:06;;;;;;;8.02;5.47;;;4.00;96.70;;;;;;4977945;28;20049;-70
2023/01/30 03:05:56;;;;;;;7.85;5.55;;;3.90;96.70;;;;;;4976642;28;20058;-70
2023/01/30 03:08:31;;;;;;;8.23;5.20;;;3.90;96.70;;;;;;4981103;28;20050;-70
2023/01/30 03:11:03;;;;;;;8.30;5.22;;;3.80;96.70;;;;;;4983120;28;20092;-70
2023/01/30 03:13:43;;;;;;;8.00;5.07;;;3.80;96.70;;;;;;4985393;28;20051;-70
2023/01/30 03:16:16;;;;;;;9.13;5.40;;;3.90;96.70;;;;;;4985267;28;20051;-70
2023/01/30 03:18:47;;;;;;;7.57;5.03;;;3.70;96.70;;;;;;4977560;28;20515;-68
2023/01/30 03:21:16;;;;;;;7.75;4.95;;;3.60;96.70;;;;;;4984534;28;20042;-70
2023/01/30 03:23:44;;;;;;;7.63;4.63;;;3.40;96.70;;;;;;4969174;28;20500;-71
2023/01/30 03:26:18;;;;;;;6.50;4.28;;;3.50;96.70;;;;;;4984602;28;20062;-70
2023/01/30 03:28:49;;;;;;;7.13;4.50;;;3.50;96.70;;;;;;4984808;28;20574;-70
2023/01/30 03:31:17;;;;;;;6.30;4.15;;;3.40;96.70;;;;;;4983692;28;20054;-70
2023/01/30 03:33:46;;;;;;;6.65;4.10;;;3.30;96.70;;;;;;4976929;28;20097;-71
2023/01/30 03:36:14;;;;;;;8.32;4.15;;;3.40;96.70;;;;;;4984912;28;20395;-70
2023/01/30 03:38:42;;;;;;;9.38;4.95;;;3.40;96.70;;;;;;4982349;28;20052;-71
2023/01/30 03:41:10;;;;;;;8.18;4.53;;;3.40;96.70;;;;;;4984385;28;20038;-71
2023/01/30 03:43:38;;;;;;;8.32;4.65;;;3.40;96.70;;;;;;4984379;28;20534;-70
2023/01/30 03:46:06;;;;;;;8.00;4.63;;;3.40;96.70;;;;;;4982291;28;20058;-71
2023/01/30 03:48:34;;;;;;;7.82;4.60;;;3.30;96.70;;;;;;4966547;28;20048;-71
2023/01/30 03:51:03;;;;;;;7.20;4.47;;;3.30;96.70;;;;;;4968596;28;20092;-70
2023/01/30 03:53:31;;;;;;;10.63;5.05;;;3.30;96.70;;;;;;4982556;28;20080;-70
2023/01/30 03:55:59;;;;;;;8.90;5.00;;;3.30;96.70;;;;;;4983051;28;20049;-70
2023/01/30 03:58:30;;;;;;;7.25;4.88;;;3.30;96.70;;;;;;4984408;28;20582;-71
2023/01/30 04:01:04;;;;;;;10.38;5.43;;;3.40;96.70;;;;;;4984297;28;20133;-70
2023/01/30 04:03:32;;;;;;;9.32;5.97;;;3.40;96.70;;;;;;4967872;28;20054;-70
2023/01/30 04:06:00;;;;;;;8.15;5.75;;;3.40;96.70;;;;;;4987837;28;20060;-70
2023/01/30 04:08:30;;;;;;;9.88;5.55;;;3.30;96.70;;;;;;4983702;28;20047;-71
2023/01/30 04:10:57;;;;;;;8.38;5.95;;;3.10;96.70;;;;;;4983761;28;20539;-70
2023/01/30 04:13:25;;;;;;;9.48;5.63;;;3.20;96.70;;;;;;4984235;28;20062;-73
2023/01/30 04:16:12;;;;;;;9.57;6.13;;;3.10;96.70;;;;;;4984432;28;20397;-74
2023/01/30 04:18:59;;;;;;;9.38;5.97;;;3.10;96.70;;;;;;4975149;28;20052;-74
2023/01/30 04:21:30;;;;;;;8.80;5.68;;;3.10;96.70;;;;;;4977755;28;20131;-74
2023/01/30 04:23:59;;;;;;;10.57;6.32;;;3.20;96.70;;;;;;4966694;28;20074;-76
2023/01/30 04:26:27;;;;;;;10.90;6.07;;;3.20;96.70;;;;;;4984531;28;20302;-74
2023/01/30 04:28:55;;;;;;;10.60;6.10;;;3.30;96.70;;;;;;4980719;28;20429;-74
2023/01/30 04:31:23;;;;;;;9.00;5.78;;;3.20;96.70;;;;;;4970786;28;20420;-74
2023/01/30 04:34:01;;;;;;;10.02;6.30;;;3.20;96.70;;;;;;4984049;28;20054;-74
2023/01/30 04:36:30;;;;;;;9.15;6.25;;;3.10;96.70;;;;;;4982725;28;20124;-73
2023/01/30 04:38:59;;;;;;;10.35;6.32;;;3.10;96.70;;;;;;4967042;28;20047;-74
2023/01/30 04:41:31;;;;;;;8.10;5.50;;;3.10;96.70;;;;;;4985353;28;20137;-74
2023/01/30 04:44:00;;;;;;;9.82;5.88;;;3.20;96.70;;;;;;4983408;28;20042;-74
2023/01/30 04:46:43;;;;;;;9.23;5.90;;;3.20;96.70;;;;;;4975771;28;20699;-74
2023/01/30 04:49:12;;;;;;;8.65;5.80;;;3.10;96.70;;;;;;4983018;28;20100;-74
2023/01/30 04:51:40;;;;;;;10.38;6.30;;;3.00;96.70;;;;;;4959879;28;20049;-71
2023/01/30 04:54:10;;;;;;;9.00;5.50;;;3.00;96.70;;;;;;4983056;28;20591;-71
2023/01/30 04:56:37;;;;;;;8.50;5.47;;;3.00;96.70;;;;;;4982611;28;20515;-71
2023/01/30 04:59:06;;;;;;;9.52;6.22;;;3.00;96.70;;;;;;4983384;28;20459;-70
2023/01/30 05:01:39;;;;;;;11.45;5.80;;;3.00;96.70;;;;;;4982356;28;20058;-71
2023/01/30 05:04:08;;;;;;;9.27;5.97;;;3.10;96.70;;;;;;4982405;28;20078;-71
2023/01/30 05:06:36;;;;;;;8.15;5.10;;;3.00;96.70;;;;;;4984560;28;20057;-70
2023/01/30 05:09:04;;;;;;;9.05;5.82;;;2.90;96.70;;;;;;4982166;28;20161;-71
2023/01/30 05:11:34;;;;;;;8.13;5.80;;;2.90;96.70;;;;;;4983682;28;20144;-70
2023/01/30 05:14:02;;;;;;;9.32;6.15;;;3.00;96.70;;;;;;4979692;28;20042;-70
2023/01/30 05:16:30;;;;;;;9.18;6.00;;;2.90;96.70;;;;;;4981594;28;20051;-70
2023/01/30 05:18:58;;;;;;;10.02;6.05;;;2.90;96.70;;;;;;4982065;28;20070;-71
2023/01/30 05:21:30;;;;;;;11.15;5.85;;;2.90;96.70;;;;;;4978213;28;20080;-71
2023/01/30 05:23:58;;;;;;;9.70;5.82;;;2.90;96.70;;;;;;4980102;28;20042;-71
2023/01/30 05:26:26;;;;;;;10.88;6.25;;;3.00;96.70;;;;;;4976729;28;20566;-70
2023/01/30 05:28:57;;;;;;;7.57;5.70;;;2.90;96.70;;;;;;4982767;28;20558;-70
2023/01/30 05:31:25;;;;;;;10.63;5.72;;;2.90;96.70;;;;;;4976344;28;20058;-71
2023/01/30 05:33:54;;;;;;;8.43;5.47;;;2.90;96.70;;;;;;4975356;28;20073;-70
2023/01/30 05:36:22;;;;;;;9.60;6.22;;;2.80;96.70;;;;;;4982692;28;20141;-70
2023/01/30 05:38:50;;;;;;;9.32;6.15;;;2.80;96.70;;;;;;4980094;28;20088;-70
2023/01/30 05:41:19;;;;;;;9.73;6.32;;;2.90;96.70;;;;;;4983137;28;20050;-71
2023/01/30 05:43:49;;;;;;;10.63;6.25;;;2.90;96.70;;;;;;4983284;28;20656;-70
2023/01/30 05:46:19;;;;;;;9.85;6.22;;;2.80;96.70;;;;;;4978019;28;20062;-71
2023/01/30 05:48:47;;;;;;;8.00;5.80;;;2.70;96.70;;;;;;4982336;28;20042;-71
2023/01/30 05:51:17;;;;;;;9.02;5.85;;;2.80;96.70;;;;;;4981982;28;20454;-70
2023/01/30 05:53:46;;;;;;;7.93;5.43;;;2.60;96.70;;;;;;4981406;28;20080;-70
2023/01/30 05:56:14;;;;;;;7.78;5.70;;;2.60;96.70;;;;;;4968725;28;20532;-70
2023/01/30 05:58:42;;;;;;;7.80;5.07;;;2.70;96.70;;;;;;4981178;28;20472;-70
2023/01/30 06:01:12;;;;;;;7.30;5.03;;;2.70;96.70;;;;;;4980941;28;20073;-71
2023/01/30 06:03:41;;;;;;;7.63;5.15;;;2.70;96.70;;;;;;4980444;28;20488;-71
2023/01/30 06:06:10;;;;;;;8.38;5.25;;;2.70;96.70;;;;;;4997826;28;20058;-70
2023/01/30 06:08:38;;;;;;;9.27;5.28;;;2.60;96.70;;;;;;4981193;28;20091;-70
2023/01/30 06:11:09;;;;;;;8.20;5.47;;;2.70;96.70;;;;;;4981515;28;21277;-71
2023/01/30 06:13:38;;;;;;;8.07;5.00;;;2.70;96.70;;;;;;4981447;28;20058;-70
2023/01/30 06:16:16;;;;;;;9.15;5.95;;;2.80;96.70;;;;;;4981828;28;20618;-70
2023/01/30 06:18:46;;;;;;;10.60;6.20;;;2.60;96.70;;;;;;4978542;28;20698;-70
2023/01/30 06:21:15;;;;;;;11.57;6.07;;;2.60;96.70;;;;;;4976522;28;20039;-70
2023/01/30 06:23:43;;;;;;;9.65;6.63;;;2.50;96.70;;;;;;4977169;28;20054;-69
2023/01/30 06:26:12;;;;;;;9.55;5.60;;;2.50;96.70;;;;;;4976554;28;20067;-70
2023/01/30 06:28:40;;;;;;;9.95;5.60;;;2.40;96.70;;;;;;4972191;28;20452;-70
2023/01/30 06:31:08;;;;;;;9.13;5.25;;;2.40;96.70;;;;;;4982271;28;20472;-71
2023/01/30 06:33:36;;;;;;;10.45;5.50;;;2.30;96.70;;;;;;4981814;28;20050;-71
2023/01/30 06:36:07;;;;;;;8.20;5.28;;;2.30;96.70;;;;;;4981366;28;20047;-71
2023/01/30 06:38:35;;;;;;;8.75;5.28;;;2.20;96.70;;;;;;4978735;28;20100;-68
2023/01/30 06:41:03;;;;;;;9.95;6.20;;;2.20;96.70;;;;;;4963714;28;20053;-69
2023/01/30 06:43:31;;;;;;;10.98;6.53;;;2.40;96.70;;;;;;4982090;28;20050;-71
2023/01/30 06:46:00;;;;;;;10.50;6.60;;;2.40;96.70;;;;;;4975982;28;20416;-70
2023/01/30 06:48:28;;;;;;;11.27;7.10;;;2.50;96.70;;;;;;4978954;28;20054;-70
2023/01/30 06:50:56;;;;;;;12.38;6.28;;;2.50;96.70;;;;;;4983705;28;20444;-69
2023/01/30 06:53:29;;;;;;;11.35;7.22;;;2.50;96.70;;;;;;4983016;28;20042;-69
2023/01/30 06:55:57;;;;;;;14.02;7.88;;;2.50;96.70;;;;;;4983016;28;20042;-70
2023/01/30 06:58:25;;;;;;;11.77;6.65;;;2.60;96.70;;;;;;4987280;28;20053;-70
2023/01/30 07:00:53;;;;;;;10.35;6.93;;;2.70;96.70;;;;;;4985261;28;20122;-70
2023/01/30 07:03:22;;;;;;;13.40;7.32;;;2.60;96.70;;;;;;4985532;28;20046;-70
2023/01/30 07:05:50;;;;;;;11.52;7.38;;;2.70;96.70;;;;;;4984831;28;20106;-70
2023/01/30 07:08:18;;;;;;;10.88;6.65;;;2.60;96.70;;;;;;4986501;28;20120;-70
2023/01/30 07:10:48;;;;;;;10.70;6.97;;;2.50;96.70;;;;;;4984487;28;20160;-70
2023/01/30 07:13:15;;;;;;;11.25;5.82;;;2.50;96.70;;;;;;4967723;28;20045;-69
2023/01/30 07:15:45;;;;;;;8.65;6.10;;;2.60;96.70;;;;;;4964992;28;20117;-70
2023/01/30 07:18:13;;;;;;;9.70;5.75;;;2.50;96.70;;;;;;4982720;28;20069;-70
2023/01/30 07:20:41;;;;;;;10.48;6.22;;;2.40;96.70;;;;;;4964244;28;20145;-70
2023/01/30 07:23:09;;;;;;;10.38;5.60;;;2.50;96.70;;;;;;4985131;28;20057;-70
2023/01/30 07:25:37;;;;;;;8.70;5.75;;;2.50;96.70;;;;;;4982688;28;20046;-70
2023/01/30 07:28:08;;;;;;;9.93;6.15;;;2.60;96.70;;;;;;4967040;28;20074;-70
2023/01/30 07:30:36;;;;;;;15.20;7.03;;;2.70;96.70;;;;;;4984948;28;20050;-69
2023/01/30 07:33:05;;;;;;;10.30;7.20;;;2.80;96.70;;;;;;4983945;28;20049;-70
2023/01/30 07:35:35;;;;;;;14.15;8.00;;;2.80;96.70;;;;;;4983746;28;20128;-70
2023/01/30 07:38:04;;;;;;;11.32;7.50;;;2.70;96.70;;;;;;4977448;28;20062;-70
2023/01/30 07:40:32;;;;;;;14.52;7.95;;;2.70;96.70;;;;;;4985098;28;20046;-70
2023/01/30 07:43:02;;;;;;;11.63;7.63;;;2.70;96.70;;;;;;4985348;28;20050;-71
2023/01/30 07:45:35;;;;;;;15.85;8.82;;;2.80;96.70;;;;;;4977624;28;20055;-70
2023/01/30 07:48:04;;;;;;;12.75;7.60;;;2.80;96.70;;;;;;4977885;28;20164;-70
2023/01/30 07:50:32;;;;;;;10.38;6.85;;;2.80;96.70;;;;;;4976679;28;20046;-70
2023/01/30 07:53:02;;;;;;;11.98;7.45;;;3.00;96.70;;;;;;4979545;28;20530;-70
2023/01/30 07:55:31;;;;;;;10.98;6.95;;;3.20;96.70;;;;;;4985685;28;20493;-71
2023/01/30 07:57:59;;;;;;;11.75;7.05;;;3.10;96.70;;;;;;4983006;28;20054;-70
2023/01/30 08:00:27;;;;;;;10.48;6.70;;;3.20;96.70;;;;;;4980425;28;20043;-70
2023/01/30 08:02:56;;;;;;;11.25;7.55;;;3.30;96.70;;;;;;4980669;28;20089;-70
2023/01/30 08:05:24;;;;;;;11.75;7.43;;;3.30;96.70;;;;;;4983843;28;20173;-70
2023/01/30 08:07:55;;;;;;;10.73;6.40;;;3.20;96.70;;;;;;4982471;28;20057;-70
2023/01/30 08:10:23;;;;;;;11.52;7.18;;;3.20;96.70;;;;;;4981079;28;20042;-70
2023/01/30 08:12:52;;;;;;;11.80;6.65;;;3.10;96.70;;;;;;4979732;28;20045;-71
2023/01/30 08:15:20;;;;;;;12.25;7.35;;;3.20;96.70;;;;;;4983161;28;20052;-70
2023/01/30 08:17:58;;;;;;;12.10;7.72;;;3.20;96.70;;;;;;4985081;28;20042;-69
2023/01/30 08:20:45;;;;;;;;;;;3.10;96.70;;;;;;4976721;28;20054;-70
2023/01/30 08:23:13;;;;;;;13.00;7.70;;;3.20;96.70;;;;;;4983992;28;20024;-72
2023/01/30 08:25:41;;;;;;;10.30;6.90;;;3.30;96.70;;;;;;4983561;28;20158;-73
2023/01/30 08:28:09;;;;;;;11.35;7.78;;;3.30;96.70;;;;;;4979011;28;20058;-71
2023/01/30 08:30:37;;;;;;;11.25;7.50;;;3.30;96.70;;;;;;4979344;28;20057;-71
2023/01/30 08:33:06;;;;;;;11.95;7.32;;;3.20;96.70;;;;;;4985638;28;20539;-71
2023/01/30 08:35:34;;;;;;;10.98;7.85;;;3.30;96.70;;;;;;4980436;28;20046;-71
2023/01/30 08:38:06;;;;;;;13.60;8.43;;;3.50;96.70;;;;;;4983652;28;20050;-71
2023/01/30 08:40:34;;;;;;;11.93;7.70;;;3.50;96.70;;;;;;4977744;28;20755;-71
2023/01/30 08:43:02;;;;;;;13.80;8.18;;;3.60;96.70;;;;;;4975846;28;21330;-70
2023/01/30 08:45:31;;;;;;;11.98;7.90;;;3.60;96.70;;;;;;4984846;28;20074;-71
2023/01/30 08:48:00;;;;;;;19.38;9.43;;;3.70;96.70;;;;;;4978244;28;20531;-71
2023/01/30 08:50:30;;;;;;;14.27;7.90;;;3.80;96.70;;;;;;4976670;28;20043;-71
2023/01/30 08:53:03;;;;;;;13.02;8.23;;;3.90;96.70;;;;;;4980233;28;20174;-70
2023/01/30 08:55:31;;;;;;;12.45;7.95;;;4.00;96.70;;;;;;4974435;28;20124;-72
2023/01/30 08:57:59;;;;;;;11.45;7.68;;;4.10;96.70;;;;;;4965244;28;20038;-70
2023/01/30 09:00:28;;;;;;;14.13;7.35;;;4.20;96.70;;;;;;4966534;28;20613;-71
2023/01/30 09:02:56;;;;;;;12.95;8.80;;;4.10;96.70;;;;;;4978580;28;20171;-70
2023/01/30 09:05:25;;;;;;;15.48;9.00;;;4.00;96.70;;;;;;4980784;28;20060;-70
2023/01/30 09:07:55;;;;;;;22.08;11.35;;;4.10;96.70;;;;;;4979638;28;20070;-71
2023/01/30 09:10:23;;;;;;;20.65;12.50;;;4.30;96.70;;;;;;4982386;28;20074;-71
2023/01/30 09:12:51;;;;;;;23.10;12.32;;;4.40;96.70;;;;;;4984350;28;20559;-72
2023/01/30 09:15:19;;;;;;;25.13;12.88;;;4.50;96.70;;;;;;4983783;28;20075;-70
2023/01/30 09:17:47;;;;;;;35.78;19.80;;;4.60;96.70;;;;;;4967114;28;20046;-71
2023/01/30 09:20:15;;;;;;;37.55;21.05;;;4.80;96.70;;;;;;4961849;28;20062;-71
2023/01/30 09:22:44;;;;;;;23.73;14.27;;;4.90;96.70;;;;;;4982689;28;20579;-71
2023/01/30 09:25:14;;;;;;;23.40;14.38;;;5.00;96.70;;;;;;4976034;28;20043;-70
2023/01/30 09:27:43;;;;;;;23.88;14.43;;;5.10;96.70;;;;;;4983067;28;20411;-70
2023/01/30 09:30:12;;;;;;;24.70;16.25;;;5.20;96.70;;;;;;4983113;28;20407;-70
2023/01/30 09:32:40;;;;;;;28.52;16.25;;;5.20;96.70;;;;;;4980800;28;20042;-70
2023/01/30 09:35:08;;;;;;;22.95;14.02;;;5.40;96.70;;;;;;4979150;28;20038;-70
2023/01/30 09:37:36;;;;;;;18.95;11.98;;;5.30;96.70;;;;;;4973042;28;20048;-71
2023/01/30 09:40:06;;;;;;;15.93;10.00;;;5.40;96.70;;;;;;4976545;28;20058;-71
2023/01/30 09:43:00;;;;;;;16.77;10.40;;;5.50;96.70;;;;;;4975435;28;20042;-71
2023/01/30 09:45:47;;;;;;;15.00;9.95;;;5.50;96.70;;;;;;4980939;28;20050;-71
2023/01/30 09:48:20;;;;;;;16.48;10.07;;;5.70;96.70;;;;;;4982160;28;20054;-71
2023/01/30 09:51:31;;;;;;;14.30;9.65;;;5.80;96.70;;;;;;4981844;28;20053;-70
2023/01/30 09:54:11;;;;;;;18.55;9.73;;;5.80;96.70;;;;;;4980044;28;20109;-71
2023/01/30 09:56:40;;;;;;;20.35;12.23;;;5.90;96.70;;;;;;4981876;28;20057;-71
2023/01/30 09:59:21;;;;;;;18.88;10.95;;;6.10;96.70;;;;;;4980308;28;20042;-70
2023/01/30 10:01:57;;;;;;;21.08;13.18;;;6.30;96.70;;;;;;4975392;28;20621;-70
2023/01/30 10:04:32;;;;;;;18.73;11.98;;;6.40;96.70;;;;;;4981078;28;20431;-70
2023/01/30 10:07:09;;;;;;;17.90;11.15;;;6.60;96.70;;;;;;4976556;28;20062;-70
2023/01/30 10:09:45;;;;;;;15.75;10.27;;;6.70;96.70;;;;;;4976614;28;20053;-70
2023/01/30 10:12:29;;;;;;;17.40;10.20;;;6.90;96.70;;;;;;4977161;28;20512;-72
2023/01/30 10:15:21;;;;;;;18.60;10.98;;;7.00;96.70;;;;;;4976964;28;20042;-70
2023/01/30 10:18:12;;;;;;;13.40;8.80;;;7.10;96.70;;;;;;4983596;28;20057;-70
2023/01/30 10:20:46;;;;;;;15.95;10.38;;;7.30;96.70;;;;;;4974782;28;20057;-72
2023/01/30 10:23:38;;;;;;;13.57;8.75;;;7.40;96.70;;;;;;4979991;28;20140;-71
2023/01/30 10:26:10;;;;;;;16.67;9.70;;;7.30;96.70;;;;;;4973666;28;20081;-71
2023/01/30 10:28:42;;;;;;;14.20;10.32;;;7.30;96.70;;;;;;4973731;28;20570;-71
2023/01/30 10:31:21;;;;;;;15.48;10.45;;;7.30;96.70;;;;;;4982685;28;20038;-71
2023/01/30 10:33:58;;;;;;;15.02;10.30;;;7.40;96.70;;;;;;4997131;28;20050;-70
2023/01/30 10:36:34;;;;;;;14.15;9.82;;;7.40;96.70;;;;;;4986373;28;20102;-71
2023/01/30 10:39:09;;;;;;;17.23;10.85;;;7.50;96.70;;;;;;4982716;28;20051;-71
2023/01/30 10:41:44;;;;;;;17.40;11.73;;;7.60;96.70;;;;;;4981136;28;20049;-71
2023/01/30 10:44:13;;;;;;;17.65;10.60;;;7.80;96.70;;;;;;4975114;28;20050;-71
2023/01/30 10:47:13;;;;;;;16.58;10.27;;;7.90;96.70;;;;;;4980790;28;20066;-71
2023/01/30 10:49:50;;;;;;;15.65;11.05;;;8.10;96.70;;;;;;4942049;28;20065;-70
2023/01/30 10:52:28;;;;;;;15.45;10.30;;;8.30;96.70;;;;;;4981724;28;20074;-70
2023/01/30 10:55:05;;;;;;;15.00;9.90;;;8.50;96.70;;;;;;4980873;28;20104;-70
2023/01/30 10:57:40;;;;;;;;;;;8.60;96.70;;;;;;4979799;28;20045;-71
2023/01/30 11:00:18;;;;;;;18.83;13.52;;;8.70;96.70;;;;;;4977062;28;19926;-71
2023/01/30 11:03:00;;;;;;;17.35;11.15;;;8.80;96.70;;;;;;4980400;28;20050;-71
2023/01/30 11:05:39;;;;;;;16.33;9.55;;;8.90;96.70;;;;;;4979226;28;20888;-70
2023/01/30 11:08:17;;;;;;;15.68;11.05;;;9.00;96.70;;;;;;4977265;28;20039;-71
2023/01/30 11:10:45;;;;;;;16.45;11.02;;;9.20;96.70;;;;;;4980772;28;20081;-72
2023/01/30 11:13:17;;;;;;;16.77;9.95;;;9.40;96.70;;;;;;4977627;28;20049;-74
2023/01/30 11:15:48;;;;;;;14.52;9.90;;;9.30;96.70;;;;;;4974434;28;20054;-72
2023/01/30 11:18:19;;;;;;;13.70;9.55;;;9.20;96.70;;;;;;4980309;28;20057;-73
2023/01/30 11:21:18;;;;;;;11.45;8.82;;;9.10;96.70;;;;;;4978497;28;20046;-73
2023/01/30 11:23:46;;;;;;;14.43;9.30;;;9.20;96.70;;;;;;4979596;28;20057;-73
2023/01/30 11:26:20;;;;;;;13.90;9.05;;;9.20;96.70;;;;;;4972860;28;20046;-72
2023/01/30 11:28:48;;;;;;;15.55;10.00;;;9.20;96.70;;;;;;4980733;28;20048;-72
2023/01/30 11:31:18;;;;;;;12.77;9.23;;;9.20;96.70;;;;;;4975173;28;20046;-71
2023/01/30 11:34:13;;;;;;;12.45;8.80;;;9.10;96.70;;;;;;4979153;28;20524;-71
2023/01/30 11:36:46;;;;;;;13.63;8.27;;;8.90;96.70;;;;;;4984192;28;20141;-72
2023/01/30 11:39:27;;;;;;;11.82;8.30;;;8.80;96.70;;;;;;4979593;28;20053;-72
2023/01/30 11:42:00;;;;;;;12.88;8.10;;;8.70;96.70;;;;;;4973380;28;20256;-71
2023/01/30 11:44:31;;;;;;;12.15;9.05;;;8.90;96.70;;;;;;4981478;28;20636;-71
2023/01/30 11:47:02;;;;;;;11.65;8.55;;;9.10;96.70;;;;;;4984194;28;20042;-73
2023/01/30 11:49:36;;;;;;;10.70;8.15;;;9.30;96.70;;;;;;4981720;28;20175;-71
2023/01/30 11:52:29;;;;;;;13.57;9.60;;;9.70;96.70;;;;;;4977282;28;20058;-73
2023/01/30 11:55:02;;;;;;;14.15;9.20;;;10.10;96.70;;;;;;4976857;28;20096;-73
2023/01/30 11:57:41;;;;;;;15.52;9.30;;;10.30;96.70;;;;;;4983808;28;20074;-72
2023/01/30 12:00:17;;;;;;;14.20;9.10;;;10.20;96.70;;;;;;4983209;28;20050;-72
2023/01/30 12:02:48;;;;;;;13.45;9.65;;;10.10;96.70;;;;;;4964804;28;20046;-72
2023/01/30 12:05:24;;;;;;;11.13;8.88;;;9.90;96.70;;;;;;4979544;28;20492;-72
2023/01/30 12:08:12;;;;;;;12.63;9.15;;;9.70;96.70;;;;;;4983162;28;20469;-72
2023/01/30 12:10:42;;;;;;;13.98;8.73;;;9.70;96.70;;;;;;4983040;28;20420;-72
2023/01/30 12:13:18;;;;;;;14.18;10.02;;;9.90;96.70;;;;;;4981442;28;20730;-72
2023/01/30 12:15:51;;;;;;;11.50;8.95;;;10.00;96.70;;;;;;4983828;28;20050;-72
2023/01/30 12:18:25;;;;;;;19.40;11.48;;;10.10;96.70;;;;;;4982279;28;20042;-72
2023/01/30 12:20:59;;;;;;;13.02;8.23;;;10.30;96.70;;;;;;4982896;28;20517;-72
2023/01/30 12:23:37;;;;;;;10.00;7.60;;;10.40;96.70;;;;;;4979791;28;20654;-71
2023/01/30 12:26:11;;;;;;;11.40;7.40;;;10.20;96.70;;;;;;4983036;28;20849;-72
2023/01/30 12:28:48;;;;;;;10.75;7.57;;;9.90;96.70;;;;;;4979849;28;20065;-73
2023/01/30 12:31:21;;;;;;;14.63;7.97;;;9.70;96.70;;;;;;4983232;28;20165;-72
2023/01/30 12:33:50;;;;;;;9.75;7.55;;;9.50;96.70;;;;;;4980904;28;20634;-73
2023/01/30 12:36:28;;;;;;;11.65;8.60;;;9.40;96.70;;;;;;4976243;28;20133;-72
2023/01/30 12:39:12;;;;;;;13.65;9.35;;;9.30;96.70;;;;;;4982524;28;20050;-72
2023/01/30 12:42:16;;;;;;;12.57;8.93;;;9.20;96.70;;;;;;4984651;28;20342;-72
2023/01/30 12:45:05;;;;;;;10.65;7.57;;;9.10;96.70;;;;;;4980666;28;20120;-72
2023/01/30 12:47:50;;;;;;;12.70;8.85;;;9.10;96.70;;;;;;4979737;28;20042;-73
2023/01/30 12:50:28;;;;;;;11.63;7.57;;;9.20;96.70;;;;;;4972464;28;20717;-72
2023/01/30 12:53:18;;;;;;;9.63;7.20;;;9.40;96.70;;;;;;4976391;28;20061;-71
2023/01/30 12:55:57;;;;;;;11.10;7.40;;;9.70;96.70;;;;;;4981591;28;20142;-72
2023/01/30 12:58:31;;;;;;;10.50;7.25;;;10.00;96.70;;;;;;4977799;28;20050;-72
2023/01/30 13:01:13;;;;;;;15.13;10.07;;;10.20;96.70;;;;;;4982619;28;20058;-72
2023/01/30 13:03:47;;;;;;;13.10;9.07;;;10.20;96.70;;;;;;4981100;28;20046;-72
2023/01/30 13:06:33;;;;;;;11.52;8.18;;;10.20;96.70;;;;;;4980934;28;20065;-73
2023/01/30 13:09:16;;;;;;;12.00;8.13;;;10.20;96.70;;;;;;4982180;28;20074;-73
2023/01/30 13:11:56;;;;;;;12.77;8.57;;;10.20;96.70;;;;;;4979913;28;20145;-73
2023/01/30 13:14:33;;;;;;;12.88;8.02;;;10.10;96.70;;;;;;4980854;28;20051;-76
2023/01/30 13:17:24;;;;;;;13.73;8.70;;;10.00;96.70;;;;;;4980994;28;20050;-76
2023/01/30 13:19:57;;;;;;;15.82;10.20;;;10.00;96.70;;;;;;4971289;28;20081;-73
2023/01/30 13:22:32;;;;;;;13.25;9.90;;;10.00;96.70;;;;;;4965512;28;20050;-72
2023/01/30 13:25:06;;;;;;;14.90;9.15;;;10.20;96.70;;;;;;4980162;28;20496;-72